25°C Temp
11°C Dewpoint
42% Humidity
Temperature
8 KM/H
5 MPH
4 KTS
280°
Due West

Wind Speed
Clear
Conditions
Pressure 1012.92 (hPa) - 29.91 (in)
Visibility 6.2 (mi) - 10.0 (km)

Current Conditions
LGAV
Location 35(km)
Metar :LGAV 292120Z 28004KT CAVOK 25/11 Q1013 NOSIG
Wed 29th June 23:20 pm

Airport
  Metar Aviation API Data Provided by https://www.checkwx.com/ PHP scripts by weather34.com ©2022